createdAt,value
2022-12-08T00:01:34.697Z,87.17
2022-12-08T00:04:04.327Z,87.28
2022-12-08T00:06:57.920Z,87.22
2022-12-08T00:09:38.983Z,87.07
2022-12-08T00:12:16.734Z,87.05
2022-12-08T00:14:47.440Z,86.93
2022-12-08T00:17:17.118Z,86.85
2022-12-08T00:19:45.513Z,86.77
2022-12-08T00:22:14.839Z,86.98
2022-12-08T00:24:46.405Z,87.25
2022-12-08T00:27:16.088Z,87.17
2022-12-08T00:29:45.544Z,87.16
2022-12-08T00:32:13.538Z,87.22
2022-12-08T00:34:41.290Z,87.32
2022-12-08T00:37:08.991Z,87.37
2022-12-08T00:39:37.050Z,87.43
2022-12-08T00:42:14.352Z,87.31
2022-12-08T00:44:44.836Z,87.25
2022-12-08T00:47:13.589Z,87.29
2022-12-08T00:49:42.242Z,87.33
2022-12-08T00:52:10.088Z,87.13
2022-12-08T00:54:38.203Z,87.06
2022-12-08T00:57:06.251Z,87.05
2022-12-08T00:59:33.994Z,87.05
2022-12-08T01:02:01.719Z,86.99
2022-12-08T01:04:29.517Z,86.90
2022-12-08T01:06:57.312Z,87.13
2022-12-08T01:09:25.085Z,87.15
2022-12-08T01:11:53.088Z,87.21
2022-12-08T01:14:21.128Z,87.05
2022-12-08T01:16:48.908Z,87.16
2022-12-08T01:19:17.956Z,87.10
2022-12-08T01:21:46.244Z,87.11
2022-12-08T01:24:20.597Z,87.22
2022-12-08T01:26:51.370Z,87.38
2022-12-08T01:29:19.273Z,87.24
2022-12-08T01:31:46.941Z,87.24
2022-12-08T01:34:14.825Z,87.23
2022-12-08T01:36:44.330Z,87.28
2022-12-08T01:39:19.007Z,87.37
2022-12-08T01:41:47.811Z,87.55
2022-12-08T01:44:15.493Z,87.61
2022-12-08T01:46:45.949Z,87.82
2022-12-08T01:49:32.062Z,87.80
2022-12-08T01:52:16.288Z,87.80
2022-12-08T01:54:52.420Z,87.81
2022-12-08T01:57:45.035Z,87.66
2022-12-08T02:00:18.233Z,87.68
2022-12-08T02:03:03.948Z,87.59
2022-12-08T02:05:36.408Z,87.73
2022-12-08T02:08:10.123Z,87.65
2022-12-08T02:10:42.561Z,87.59
2022-12-08T02:13:16.283Z,87.58
2022-12-08T02:16:09.075Z,87.60
2022-12-08T02:19:14.705Z,87.65
2022-12-08T02:22:07.315Z,87.61
2022-12-08T02:24:51.753Z,87.68
2022-12-08T02:27:41.778Z,87.79
2022-12-08T02:30:30.697Z,87.97
2022-12-08T02:33:25.873Z,88.02
2022-12-08T02:36:02.204Z,88.04
2022-12-08T02:38:55.364Z,87.92
2022-12-08T02:41:48.096Z,87.78
2022-12-08T02:44:31.471Z,87.80
2022-12-08T02:47:13.572Z,87.77
2022-12-08T02:49:41.767Z,87.80
2022-12-08T02:52:12.519Z,87.93
2022-12-08T02:54:45.857Z,87.88
2022-12-08T02:57:54.789Z,87.81
2022-12-08T03:00:27.184Z,87.72
2022-12-08T03:03:21.027Z,87.76
2022-12-08T03:06:13.224Z,87.93
2022-12-08T03:08:58.677Z,87.99
2022-12-08T03:11:43.360Z,88.06
2022-12-08T03:14:17.641Z,88.16
2022-12-08T03:16:55.128Z,88.19
2022-12-08T03:19:34.380Z,88.18
2022-12-08T03:22:05.965Z,88.11
2022-12-08T03:24:42.949Z,88.06
2022-12-08T03:27:28.085Z,87.87
2022-12-08T03:30:00.243Z,87.89
2022-12-08T03:32:58.959Z,87.90
2022-12-08T03:35:31.706Z,87.97
2022-12-08T03:38:13.120Z,88.01
2022-12-08T03:40:41.984Z,88.11
2022-12-08T03:43:10.273Z,88.19
2022-12-08T03:45:37.987Z,88.22
2022-12-08T03:48:06.410Z,88.24
2022-12-08T03:50:34.180Z,88.19
2022-12-08T03:53:01.889Z,88.29
2022-12-08T03:55:29.541Z,88.20
2022-12-08T03:57:57.212Z,88.30
2022-12-08T04:00:25.074Z,88.29
2022-12-08T04:02:52.866Z,88.31
2022-12-08T04:05:20.923Z,88.30
2022-12-08T04:07:48.651Z,88.36
2022-12-08T04:10:16.588Z,88.37
2022-12-08T04:12:44.280Z,88.42
2022-12-08T04:15:11.924Z,88.46
2022-12-08T04:17:39.599Z,88.55
2022-12-08T04:20:07.721Z,88.47
2022-12-08T04:22:35.710Z,88.52
2022-12-08T04:25:03.707Z,88.51
2022-12-08T04:27:31.398Z,88.49
2022-12-08T04:29:59.130Z,88.46
2022-12-08T04:32:26.780Z,88.50
2022-12-08T04:34:54.466Z,88.44
2022-12-08T04:37:22.255Z,88.54
2022-12-08T04:39:49.922Z,88.61
2022-12-08T04:42:17.564Z,88.54
2022-12-08T04:44:45.197Z,88.42
2022-12-08T04:47:13.272Z,88.38
2022-12-08T04:49:41.586Z,88.44
2022-12-08T04:52:09.884Z,88.50
2022-12-08T04:54:37.767Z,88.49
2022-12-08T04:57:05.522Z,88.53
2022-12-08T04:59:33.492Z,88.43
2022-12-08T05:02:01.303Z,88.40
2022-12-08T05:04:29.130Z,88.30
2022-12-08T05:06:57.051Z,88.28
2022-12-08T05:09:25.177Z,88.35
2022-12-08T05:11:52.822Z,88.32
2022-12-08T05:14:20.513Z,88.41
2022-12-08T05:16:48.546Z,88.33
2022-12-08T05:19:17.152Z,88.34
2022-12-08T05:21:45.432Z,88.30
2022-12-08T05:24:13.184Z,88.18
2022-12-08T05:26:40.996Z,88.12
2022-12-08T05:29:08.700Z,88.14
2022-12-08T05:31:36.406Z,88.17
2022-12-08T05:34:04.153Z,88.05
2022-12-08T05:36:31.902Z,87.87
2022-12-08T05:38:59.590Z,87.81
2022-12-08T05:41:27.303Z,87.81
2022-12-08T05:43:55.040Z,87.80
2022-12-08T05:46:23.155Z,87.83
2022-12-08T05:48:51.073Z,87.93
2022-12-08T05:51:24.144Z,87.86
2022-12-08T05:53:53.690Z,87.80
2022-12-08T05:56:22.777Z,87.84
2022-12-08T05:58:51.204Z,87.88
2022-12-08T06:01:25.870Z,87.95
2022-12-08T06:03:54.538Z,87.67
2022-12-08T06:06:22.808Z,87.66
2022-12-08T06:08:51.232Z,87.59
2022-12-08T06:11:25.997Z,87.33
2022-12-08T06:13:55.985Z,87.42
2022-12-08T06:16:26.304Z,87.50
2022-12-08T06:18:54.864Z,87.46
2022-12-08T06:21:22.669Z,87.48
2022-12-08T06:23:53.482Z,87.50
2022-12-08T06:26:22.353Z,87.33
2022-12-08T06:28:52.080Z,87.49
2022-12-08T06:31:26.446Z,87.69
2022-12-08T06:33:55.564Z,88.00
2022-12-08T06:36:26.553Z,87.94
2022-12-08T06:38:54.578Z,87.98
2022-12-08T06:41:22.365Z,87.82
2022-12-08T06:43:50.320Z,87.69
2022-12-08T06:46:20.297Z,87.76
2022-12-08T06:48:50.426Z,87.91
2022-12-08T06:51:22.759Z,87.75
2022-12-08T06:53:50.620Z,87.51
2022-12-08T06:56:20.101Z,87.40
2022-12-08T06:58:52.472Z,87.41
2022-12-08T07:01:21.502Z,87.32
2022-12-08T07:03:49.367Z,87.53
2022-12-08T07:06:23.841Z,87.73
2022-12-08T07:08:52.605Z,87.66
2022-12-08T07:11:22.358Z,87.53
2022-12-08T07:13:50.997Z,87.61
2022-12-08T07:16:19.619Z,87.44
2022-12-08T07:18:47.459Z,87.33
2022-12-08T07:21:17.295Z,87.43
2022-12-08T07:23:54.234Z,87.45
2022-12-08T07:26:23.925Z,87.73
2022-12-08T07:28:51.642Z,87.81
2022-12-08T07:31:23.500Z,87.83
2022-12-08T07:33:52.755Z,87.87
2022-12-08T07:36:21.233Z,87.89
2022-12-08T07:38:50.201Z,88.06
2022-12-08T07:41:23.653Z,88.04
2022-12-08T07:43:53.731Z,87.92
2022-12-08T07:46:25.026Z,87.89
2022-12-08T07:48:55.004Z,87.75
2022-12-08T07:51:24.944Z,87.69
2022-12-08T07:53:54.780Z,87.51
2022-12-08T07:56:23.460Z,87.70
2022-12-08T07:58:51.418Z,87.51
2022-12-08T08:01:22.011Z,87.17
2022-12-08T08:03:50.297Z,87.34
2022-12-08T08:07:09.353Z,87.45
2022-12-08T08:09:37.397Z,87.29
2022-12-08T08:12:29.595Z,87.22
2022-12-08T08:14:53.343Z,86.96
2022-12-08T08:17:21.217Z,86.62
2022-12-08T08:19:49.169Z,86.90
2022-12-08T08:22:16.847Z,86.87
2022-12-08T08:24:45.321Z,86.90
2022-12-08T08:27:13.997Z,87.21
2022-12-08T08:29:41.693Z,87.15
2022-12-08T08:32:09.481Z,87.23
2022-12-08T08:34:37.715Z,87.40
2022-12-08T08:37:05.530Z,87.31
2022-12-08T08:39:33.251Z,87.31
2022-12-08T08:42:00.970Z,87.12
2022-12-08T08:44:28.871Z,86.97
2022-12-08T08:46:56.692Z,87.06
2022-12-08T08:49:24.411Z,87.01
2022-12-08T08:51:52.566Z,87.05
2022-12-08T08:54:20.224Z,87.22
2022-12-08T08:56:48.398Z,87.44
2022-12-08T08:59:16.173Z,87.47
2022-12-08T09:01:43.981Z,87.52
2022-12-08T09:04:11.875Z,87.49
2022-12-08T09:06:39.891Z,87.44
2022-12-08T09:09:07.673Z,87.38
2022-12-08T09:11:35.428Z,87.33
2022-12-08T09:14:03.557Z,87.27
2022-12-08T09:16:32.177Z,87.13
2022-12-08T09:19:02.384Z,87.07
2022-12-08T09:21:30.208Z,87.00
2022-12-08T09:23:59.579Z,86.98
2022-12-08T09:26:28.772Z,86.95
2022-12-08T09:28:58.051Z,86.87
2022-12-08T09:31:26.286Z,86.63
2022-12-08T09:33:55.191Z,86.40
2022-12-08T09:36:23.273Z,86.26
2022-12-08T09:38:53.623Z,86.20
2022-12-08T09:41:49.872Z,86.23
2022-12-08T09:44:38.907Z,86.14
2022-12-08T09:47:33.767Z,85.82
2022-12-08T09:50:23.796Z,85.91
2022-12-08T09:53:21.148Z,85.92
2022-12-08T09:56:04.302Z,85.83
2022-12-08T09:58:52.770Z,85.87
2022-12-08T10:01:23.181Z,85.75
2022-12-08T10:03:54.732Z,85.53
2022-12-08T10:06:34.525Z,85.38
2022-12-08T10:09:24.346Z,85.35
2022-12-08T10:12:41.260Z,84.82
2022-12-08T10:16:06.730Z,85.02
2022-12-08T10:18:35.164Z,84.79
2022-12-08T10:21:22.901Z,84.75
2022-12-08T10:23:58.570Z,84.92
2022-12-08T10:26:26.642Z,84.88
2022-12-08T10:29:01.103Z,84.98
2022-12-08T10:31:32.371Z,84.80
2022-12-08T10:34:10.393Z,84.98
2022-12-08T10:36:49.707Z,84.93
2022-12-08T10:39:39.574Z,84.82
2022-12-08T10:42:13.484Z,84.56
2022-12-08T10:45:21.233Z,84.69
2022-12-08T10:48:05.073Z,84.54
2022-12-08T10:50:45.081Z,84.42
2022-12-08T10:53:19.748Z,83.95
2022-12-08T10:55:53.108Z,84.02
2022-12-08T10:58:45.595Z,84.09
2022-12-08T11:01:28.322Z,83.64
2022-12-08T11:04:03.133Z,83.89
2022-12-08T11:06:36.469Z,84.10
2022-12-08T11:09:30.862Z,84.08
2022-12-08T11:12:14.986Z,83.83
2022-12-08T11:14:42.859Z,83.51
2022-12-08T11:17:14.653Z,83.74
2022-12-08T11:19:55.792Z,83.42
2022-12-08T11:22:51.349Z,83.21
2022-12-08T11:25:27.413Z,82.77
2022-12-08T11:28:01.369Z,82.69
2022-12-08T11:30:38.993Z,82.66
2022-12-08T11:33:19.450Z,81.79
2022-12-08T11:35:55.543Z,81.19
2022-12-08T11:38:26.730Z,81.61
2022-12-08T11:40:59.917Z,81.43
2022-12-08T11:43:33.437Z,81.41
2022-12-08T11:46:14.119Z,81.26
2022-12-08T11:48:47.460Z,81.38
2022-12-08T11:51:32.991Z,80.18
2022-12-08T11:54:36.754Z,80.83
2022-12-08T11:57:11.820Z,80.76
2022-12-08T11:59:49.548Z,80.59
2022-12-08T12:02:32.176Z,80.78
2022-12-08T12:05:09.197Z,80.88
2022-12-08T12:08:21.145Z,80.42
2022-12-08T12:11:03.832Z,81.16
2022-12-08T12:13:52.287Z,81.03
2022-12-08T12:17:02.876Z,80.74
2022-12-08T12:19:37.681Z,79.83
2022-12-08T12:22:17.773Z,79.58
2022-12-08T12:24:51.729Z,79.66
2022-12-08T12:27:39.836Z,79.48
2022-12-08T12:30:23.476Z,79.51
2022-12-08T12:33:01.090Z,79.95
2022-12-08T12:35:35.935Z,79.15
2022-12-08T12:38:36.470Z,79.22
2022-12-08T12:41:07.991Z,78.95
2022-12-08T12:43:37.766Z,79.27
2022-12-08T12:46:24.470Z,79.07
2022-12-08T12:48:52.336Z,79.30
2022-12-08T12:51:39.024Z,79.42
2022-12-08T12:54:28.433Z,79.30
2022-12-08T12:57:09.512Z,78.50
2022-12-08T13:00:03.406Z,78.70
2022-12-08T13:02:38.439Z,77.56
2022-12-08T13:05:19.012Z,77.66
2022-12-08T13:08:06.666Z,77.91
2022-12-08T13:10:48.614Z,77.46
2022-12-08T13:13:19.137Z,78.10
2022-12-08T13:15:54.795Z,78.20
2022-12-08T13:18:40.308Z,78.45
2022-12-08T13:21:16.459Z,78.53
2022-12-08T13:24:14.362Z,78.33
2022-12-08T13:27:11.265Z,77.33
2022-12-08T13:29:39.575Z,78.16
2022-12-08T13:32:07.194Z,77.91
2022-12-08T13:34:50.623Z,76.28
2022-12-08T13:37:54.790Z,76.89
2022-12-08T13:40:30.114Z,77.33
2022-12-08T13:43:48.407Z,77.80
2022-12-08T13:59:24.908Z,76.00
2022-12-08T14:01:52.694Z,75.71
2022-12-08T14:04:53.972Z,75.57
2022-12-08T14:07:12.741Z,75.79
2022-12-08T14:09:42.580Z,76.41
2022-12-08T14:12:37.253Z,75.98
2022-12-08T14:15:07.481Z,76.81
2022-12-08T14:17:35.130Z,76.08
2022-12-08T14:20:12.243Z,76.87
2022-12-08T14:22:41.536Z,77.14
2022-12-08T14:25:15.638Z,77.25
2022-12-08T14:27:43.988Z,77.26
2022-12-08T14:30:24.583Z,77.02
2022-12-08T14:32:59.628Z,77.44
2022-12-08T14:35:30.113Z,77.51
2022-12-08T14:38:12.120Z,77.48
2022-12-08T14:40:49.939Z,77.93
2022-12-08T14:43:25.709Z,77.88
2022-12-08T14:46:01.661Z,77.49
2022-12-08T14:48:38.470Z,77.02
2022-12-08T14:51:21.578Z,77.30
2022-12-08T14:54:17.920Z,76.68
2022-12-08T14:56:55.432Z,76.90
2022-12-08T14:59:30.450Z,76.68
2022-12-08T15:02:28.115Z,76.95
2022-12-08T15:05:01.700Z,77.04
2022-12-08T15:07:44.844Z,77.04
2022-12-08T15:10:15.736Z,77.33
2022-12-08T15:13:26.526Z,77.42
2022-12-08T15:15:57.848Z,77.97
2022-12-08T15:18:39.215Z,77.86
2022-12-08T15:21:12.817Z,78.32
2022-12-08T15:23:48.945Z,78.50
2022-12-08T15:26:23.045Z,78.49
2022-12-08T15:28:51.063Z,78.69
2022-12-08T15:31:19.642Z,78.73
2022-12-08T15:33:48.036Z,78.87
2022-12-08T15:36:15.755Z,78.99
2022-12-08T15:38:43.788Z,79.16
2022-12-08T15:41:14.929Z,79.44
2022-12-08T15:43:43.130Z,79.67
2022-12-08T15:46:12.089Z,80.03
2022-12-08T15:48:39.825Z,80.27
2022-12-08T15:51:07.691Z,80.34
2022-12-08T15:53:35.355Z,80.50
2022-12-08T15:58:57.649Z,80.90
2022-12-08T16:01:26.958Z,80.97
2022-12-08T16:04:59.815Z,81.05
2022-12-08T16:07:20.687Z,81.11
2022-12-08T16:09:43.261Z,80.86
2022-12-08T16:18:26.726Z,81.50
2022-12-08T16:21:31.523Z,81.60
2022-12-08T16:23:44.663Z,81.60
2022-12-08T16:26:43.997Z,81.89
2022-12-08T16:29:06.782Z,82.06
2022-12-08T16:31:35.136Z,82.10
2022-12-08T16:34:02.891Z,82.27
2022-12-08T16:36:30.621Z,82.60
2022-12-08T16:38:58.405Z,82.68
2022-12-08T16:41:44.721Z,82.79
2022-12-08T16:44:12.487Z,82.77
2022-12-08T16:46:40.522Z,82.88
2022-12-08T16:49:09.732Z,82.85
2022-12-08T16:51:37.681Z,82.95
2022-12-08T16:54:05.468Z,83.31
2022-12-08T16:56:33.825Z,83.31
2022-12-08T16:59:02.528Z,83.32
2022-12-08T17:01:31.613Z,83.67
2022-12-08T17:04:30.945Z,83.40
2022-12-08T17:06:47.969Z,83.75
2022-12-08T17:09:15.666Z,84.00
2022-12-08T17:11:44.060Z,83.95
2022-12-08T17:14:13.929Z,84.23
2022-12-08T17:16:43.101Z,84.34
2022-12-08T17:19:15.181Z,84.33
2022-12-08T17:21:44.605Z,84.42
2022-12-08T17:24:14.706Z,84.35
2022-12-08T17:26:44.915Z,84.42
2022-12-08T17:29:12.725Z,84.58
2022-12-08T17:31:40.502Z,84.38
2022-12-08T17:34:10.329Z,84.43
2022-12-08T17:36:38.157Z,84.23
2022-12-08T17:39:12.020Z,84.26
2022-12-08T17:41:42.835Z,84.22
2022-12-08T17:44:13.703Z,84.25
2022-12-08T17:46:46.360Z,84.28
2022-12-08T17:49:22.621Z,84.20
2022-12-08T17:51:55.128Z,84.26
2022-12-08T17:54:23.210Z,84.23
2022-12-08T17:56:51.931Z,84.48
2022-12-08T17:59:19.822Z,84.20
2022-12-08T18:01:47.918Z,84.30
2022-12-08T18:04:15.727Z,84.57
2022-12-08T18:06:43.466Z,84.76
2022-12-08T18:09:11.464Z,84.66
2022-12-08T18:11:39.330Z,84.53
2022-12-08T18:14:10.042Z,84.65
2022-12-08T18:16:41.063Z,84.43
2022-12-08T18:19:10.031Z,84.36
2022-12-08T18:21:38.268Z,84.63
2022-12-08T18:24:07.751Z,84.77
2022-12-08T18:26:36.013Z,85.05
2022-12-08T18:29:03.748Z,84.69
2022-12-08T18:31:31.561Z,84.76
2022-12-08T18:33:59.613Z,84.88
2022-12-08T18:36:27.471Z,84.88
2022-12-08T18:38:55.466Z,84.85
2022-12-08T18:41:28.418Z,84.89
2022-12-08T18:43:57.365Z,84.87
2022-12-08T18:46:25.829Z,85.16
2022-12-08T18:48:53.837Z,85.23
2022-12-08T18:51:24.319Z,85.25
2022-12-08T18:53:53.397Z,85.41
2022-12-08T18:56:27.046Z,85.63
2022-12-08T18:59:02.973Z,85.55
2022-12-08T19:01:33.992Z,85.55
2022-12-08T19:06:54.047Z,85.49
2022-12-08T19:09:22.609Z,85.47
2022-12-08T19:11:50.421Z,85.22
2022-12-08T19:14:21.391Z,85.22
2022-12-08T19:16:53.601Z,85.08
2022-12-08T19:19:21.614Z,85.42
2022-12-08T19:21:49.694Z,85.22
2022-12-08T19:24:17.581Z,85.17
2022-12-08T19:26:45.521Z,85.28
2022-12-08T19:29:13.929Z,85.31
2022-12-08T19:31:42.207Z,85.31
2022-12-08T19:34:13.458Z,85.30
2022-12-08T19:36:42.975Z,85.43
2022-12-08T19:39:42.545Z,85.45
2022-12-08T19:42:40.180Z,85.65
2022-12-08T19:45:15.235Z,85.92
2022-12-08T19:47:43.727Z,85.99
2022-12-08T19:50:34.236Z,86.16
2022-12-08T19:53:09.467Z,86.17
2022-12-08T19:55:38.107Z,86.00
2022-12-08T19:58:08.042Z,86.09
2022-12-08T20:00:39.525Z,86.27
2022-12-08T20:03:07.277Z,86.37
2022-12-08T20:05:37.279Z,86.68
2022-12-08T20:08:05.717Z,86.64
2022-12-08T20:10:38.428Z,86.75
2022-12-08T20:13:26.300Z,86.52
2022-12-08T20:15:54.514Z,86.31
2022-12-08T20:18:22.629Z,86.21
2022-12-08T20:20:50.377Z,86.52
2022-12-08T20:23:18.419Z,86.71
2022-12-08T20:25:47.879Z,86.80
2022-12-08T20:28:15.874Z,86.80
2022-12-08T20:30:46.797Z,86.80
2022-12-08T20:33:17.347Z,87.02
2022-12-08T20:35:59.129Z,87.03
2022-12-08T20:38:31.858Z,87.23
2022-12-08T20:41:00.025Z,87.14
2022-12-08T20:43:30.944Z,86.90
2022-12-08T20:45:58.934Z,86.80
2022-12-08T20:48:27.329Z,86.81
2022-12-08T20:50:55.159Z,86.65
2022-12-08T20:53:23.465Z,86.52
2022-12-08T20:55:51.847Z,86.57
2022-12-08T20:58:19.952Z,86.48
2022-12-08T21:00:48.085Z,86.36
2022-12-08T21:03:17.577Z,86.37
2022-12-08T21:05:51.395Z,86.49
2022-12-08T21:08:19.881Z,86.49
2022-12-08T21:10:55.399Z,86.39
2022-12-08T21:13:23.634Z,86.50
2022-12-08T21:15:51.993Z,86.41
2022-12-08T21:18:20.201Z,86.37
2022-12-08T21:20:48.656Z,86.30
2022-12-08T21:23:17.707Z,86.16
2022-12-08T21:25:47.340Z,85.94
2022-12-08T21:28:15.464Z,85.97
2022-12-08T21:30:43.575Z,85.79
2022-12-08T21:33:11.615Z,85.59
2022-12-08T21:35:39.764Z,85.41
2022-12-08T21:38:08.635Z,85.29
2022-12-08T21:40:36.809Z,85.50
2022-12-08T21:43:04.861Z,85.47
2022-12-08T21:45:34.326Z,85.43
2022-12-08T21:48:10.343Z,85.25
2022-12-08T21:50:39.452Z,85.36
2022-12-08T21:53:07.405Z,85.55
2022-12-08T21:55:35.345Z,85.79
2022-12-08T21:58:03.376Z,85.72
2022-12-08T22:00:31.852Z,85.67
2022-12-08T22:02:59.902Z,85.67
2022-12-08T22:05:27.997Z,85.61
2022-12-08T22:07:56.057Z,85.58
2022-12-08T22:10:24.407Z,85.50
2022-12-08T22:12:52.317Z,85.53
2022-12-08T22:15:20.175Z,85.39
2022-12-08T22:17:48.089Z,85.43
2022-12-08T22:20:16.342Z,85.58
2022-12-08T22:22:44.347Z,85.55
2022-12-08T22:25:12.578Z,85.51
2022-12-08T22:27:41.148Z,85.40
2022-12-08T22:30:10.848Z,85.32
2022-12-08T22:32:39.500Z,85.23
2022-12-08T22:35:08.036Z,85.05
2022-12-08T22:37:36.267Z,84.93
2022-12-08T22:40:06.261Z,84.98
2022-12-08T22:42:34.137Z,85.03
2022-12-08T22:45:01.972Z,85.06
2022-12-08T22:47:29.895Z,85.27
2022-12-08T22:49:57.665Z,85.39
2022-12-08T22:52:25.482Z,85.24
2022-12-08T22:54:53.361Z,84.96
2022-12-08T22:57:21.068Z,85.04
2022-12-08T22:59:48.983Z,85.06
2022-12-08T23:02:16.772Z,84.92
2022-12-08T23:04:46.534Z,85.18
2022-12-08T23:07:14.920Z,85.00
2022-12-08T23:09:43.562Z,85.01
2022-12-08T23:12:11.308Z,85.26
2022-12-08T23:14:39.075Z,85.28
2022-12-08T23:17:07.030Z,85.14
2022-12-08T23:19:39.152Z,85.09
2022-12-08T23:22:07.116Z,85.19
2022-12-08T23:24:34.954Z,85.25
2022-12-08T23:27:02.697Z,85.29
2022-12-08T23:29:30.714Z,85.48
2022-12-08T23:31:58.624Z,85.61
2022-12-08T23:34:27.134Z,85.67
2022-12-08T23:36:54.867Z,85.82
2022-12-08T23:39:24.702Z,85.90
2022-12-08T23:41:52.813Z,85.59
2022-12-08T23:44:21.164Z,85.59
2022-12-08T23:46:49.101Z,85.48
2022-12-08T23:49:17.010Z,85.31
2022-12-08T23:51:44.669Z,85.33
2022-12-08T23:54:12.590Z,85.37
2022-12-08T23:56:40.512Z,85.23
2022-12-08T23:59:08.562Z,85.29
